sensor_id;sensor_type;location;lat;lon;timestamp;pressure;altitude;pressure_sealevel;temperature;humidity
40838;BME280;29632;49.168;9.848;2022-12-18T00:01:49;97859.59;;;-0.96;43.69
40838;BME280;29632;49.168;9.848;2022-12-18T00:04:23;97858.75;;;-0.96;43.51
40838;BME280;29632;49.168;9.848;2022-12-18T00:06:49;97846.78;;;-0.96;43.75
40838;BME280;29632;49.168;9.848;2022-12-18T00:09:15;97842.50;;;-0.95;43.54
40838;BME280;29632;49.168;9.848;2022-12-18T00:11:41;97848.41;;;-0.93;43.73
40838;BME280;29632;49.168;9.848;2022-12-18T00:14:07;97858.56;;;-0.90;43.37
40838;BME280;29632;49.168;9.848;2022-12-18T00:16:34;97854.25;;;-0.89;43.58
40838;BME280;29632;49.168;9.848;2022-12-18T00:19:02;97857.81;;;-0.93;43.61
40838;BME280;29632;49.168;9.848;2022-12-18T00:21:30;97860.66;;;-1.03;43.37
40838;BME280;29632;49.168;9.848;2022-12-18T00:23:56;97874.34;;;-1.05;43.89
40838;BME280;29632;49.168;9.848;2022-12-18T00:26:25;97865.94;;;-1.09;43.57
40838;BME280;29632;49.168;9.848;2022-12-18T00:28:51;97872.75;;;-1.08;43.70
40838;BME280;29632;49.168;9.848;2022-12-18T00:31:19;97873.56;;;-1.07;43.90
40838;BME280;29632;49.168;9.848;2022-12-18T00:33:45;97875.25;;;-1.06;43.70
40838;BME280;29632;49.168;9.848;2022-12-18T00:36:23;97871.94;;;-1.10;43.78
40838;BME280;29632;49.168;9.848;2022-12-18T00:38:49;97877.06;;;-1.10;43.71
40838;BME280;29632;49.168;9.848;2022-12-18T00:41:16;97877.00;;;-1.08;43.90
40838;BME280;29632;49.168;9.848;2022-12-18T00:44:02;97877.84;;;-1.08;43.48
40838;BME280;29632;49.168;9.848;2022-12-18T00:46:28;97876.16;;;-1.09;44.00
40838;BME280;29632;49.168;9.848;2022-12-18T00:48:54;97875.34;;;-1.09;43.62
40838;BME280;29632;49.168;9.848;2022-12-18T00:51:20;97873.66;;;-1.10;43.85
40838;BME280;29632;49.168;9.848;2022-12-18T00:53:45;97870.25;;;-1.11;43.52
40838;BME280;29632;49.168;9.848;2022-12-18T00:56:11;97870.25;;;-1.11;43.85
40838;BME280;29632;49.168;9.848;2022-12-18T00:58:37;97864.38;;;-1.13;43.70
40838;BME280;29632;49.168;9.848;2022-12-18T01:01:06;97861.88;;;-1.16;44.01
40838;BME280;29632;49.168;9.848;2022-12-18T01:03:32;97877.28;;;-1.18;43.60
40838;BME280;29632;49.168;9.848;2022-12-18T01:05:57;97874.72;;;-1.18;43.73
40838;BME280;29632;49.168;9.848;2022-12-18T01:08:23;97882.44;;;-1.19;43.67
40838;BME280;29632;49.168;9.848;2022-12-18T01:10:48;97874.78;;;-1.21;43.62
40838;BME280;29632;49.168;9.848;2022-12-18T01:13:14;97872.25;;;-1.21;43.54
40838;BME280;29632;49.168;9.848;2022-12-18T01:15:40;97869.69;;;-1.21;44.09
40838;BME280;29632;49.168;9.848;2022-12-18T01:18:06;97868.03;;;-1.22;43.87
40838;BME280;29632;49.168;9.848;2022-12-18T01:20:32;97867.25;;;-1.24;43.73
40838;BME280;29632;49.168;9.848;2022-12-18T01:22:58;97872.38;;;-1.25;43.99
40838;BME280;29632;49.168;9.848;2022-12-18T01:25:24;97877.50;;;-1.25;43.67
40838;BME280;29632;49.168;9.848;2022-12-18T01:27:49;97880.94;;;-1.26;44.04
40838;BME280;29632;49.168;9.848;2022-12-18T01:30:15;97887.72;;;-1.25;43.69
40838;BME280;29632;49.168;9.848;2022-12-18T01:32:40;97882.56;;;-1.24;44.15
40838;BME280;29632;49.168;9.848;2022-12-18T01:35:07;97896.16;;;-1.22;43.93
40838;BME280;29632;49.168;9.848;2022-12-18T01:37:32;97898.63;;;-1.19;44.33
40838;BME280;29632;49.168;9.848;2022-12-18T01:39:58;97900.25;;;-1.16;44.03
40838;BME280;29632;49.168;9.848;2022-12-18T01:42:24;97903.59;;;-1.14;43.96
40838;BME280;29632;49.168;9.848;2022-12-18T01:49:51;97889.94;;;-1.13;43.87
40838;BME280;29632;49.168;9.848;2022-12-18T01:52:17;97891.66;;;-1.13;43.96
40838;BME280;29632;49.168;9.848;2022-12-18T01:54:44;97892.44;;;-1.11;44.18
40838;BME280;29632;49.168;9.848;2022-12-18T01:57:11;97882.25;;;-1.13;44.32
40838;BME280;29632;49.168;9.848;2022-12-18T01:59:36;97875.41;;;-1.12;44.01
40838;BME280;29632;49.168;9.848;2022-12-18T02:02:03;97877.16;;;-1.13;43.97
40838;BME280;29632;49.168;9.848;2022-12-18T02:04:29;97872.88;;;-1.12;43.97
40838;BME280;29632;49.168;9.848;2022-12-18T02:07:05;97874.56;;;-1.11;44.12
40838;BME280;29632;49.168;9.848;2022-12-18T02:09:41;97877.16;;;-1.13;43.97
40838;BME280;29632;49.168;9.848;2022-12-18T02:12:19;97889.09;;;-1.13;44.10
40838;BME280;29632;49.168;9.848;2022-12-18T02:14:58;97884.00;;;-1.13;43.88
40838;BME280;29632;49.168;9.848;2022-12-18T02:18:11;97881.47;;;-1.15;44.09
40838;BME280;29632;49.168;9.848;2022-12-18T02:20:33;97888.31;;;-1.17;43.97
40838;BME280;29632;49.168;9.848;2022-12-18T02:26:05;97874.94;;;-1.25;44.30
40838;BME280;29632;49.168;9.848;2022-12-18T02:28:40;97884.38;;;-1.27;44.13
40838;BME280;29632;49.168;9.848;2022-12-18T02:31:10;97891.22;;;-1.29;44.14
40838;BME280;29632;49.168;9.848;2022-12-18T02:33:36;97889.63;;;-1.32;44.43
40838;BME280;29632;49.168;9.848;2022-12-18T02:36:02;97902.47;;;-1.35;44.21
40838;BME280;29632;49.168;9.848;2022-12-18T02:38:29;97905.06;;;-1.37;44.34
40838;BME280;29632;49.168;9.848;2022-12-18T02:40:56;97912.75;;;-1.37;44.30
40838;BME280;29632;49.168;9.848;2022-12-18T02:43:22;97908.50;;;-1.36;44.16
40838;BME280;29632;49.168;9.848;2022-12-18T02:46:00;97914.38;;;-1.34;44.59
40838;BME280;29632;49.168;9.848;2022-12-18T02:48:29;97915.13;;;-1.30;44.21
40838;BME280;29632;49.168;9.848;2022-12-18T02:51:08;97898.06;;;-1.30;44.21
40838;BME280;29632;49.168;9.848;2022-12-18T02:53:47;97897.28;;;-1.32;44.33
40838;BME280;29632;49.168;9.848;2022-12-18T02:56:19;97898.13;;;-1.31;44.22
40838;BME280;29632;49.168;9.848;2022-12-18T02:58:53;97902.44;;;-1.34;44.29
40838;BME280;29632;49.168;9.848;2022-12-18T03:01:42;97895.72;;;-1.36;44.14
40838;BME280;29632;49.168;9.848;2022-12-18T03:04:20;97885.56;;;-1.39;44.25
40838;BME280;29632;49.168;9.848;2022-12-18T03:06:51;97900.97;;;-1.42;44.75
40838;BME280;29632;49.168;9.848;2022-12-18T03:09:22;97917.25;;;-1.45;44.35
40838;BME280;29632;49.168;9.848;2022-12-18T03:11:54;97913.88;;;-1.47;44.56
40838;BME280;29632;49.168;9.848;2022-12-18T03:14:40;97914.75;;;-1.48;44.25
40838;BME280;29632;49.168;9.848;2022-12-18T03:17:09;97912.22;;;-1.48;44.36
40838;BME280;29632;49.168;9.848;2022-12-18T03:19:38;97907.97;;;-1.49;44.19
40838;BME280;29632;49.168;9.848;2022-12-18T03:22:07;97899.53;;;-1.53;43.98
40838;BME280;29632;49.168;9.848;2022-12-18T03:24:33;97898.00;;;-1.58;44.43
40838;BME280;29632;49.168;9.848;2022-12-18T03:27:06;97902.41;;;-1.63;44.48
40838;BME280;29632;49.168;9.848;2022-12-18T03:29:38;97888.88;;;-1.67;44.32
40838;BME280;29632;49.168;9.848;2022-12-18T03:32:16;97877.06;;;-1.71;44.59
40838;BME280;29632;49.168;9.848;2022-12-18T03:34:43;97869.47;;;-1.74;44.49
40838;BME280;29632;49.168;9.848;2022-12-18T03:37:11;97880.59;;;-1.77;44.58
40838;BME280;29632;49.168;9.848;2022-12-18T03:39:37;97882.38;;;-1.79;44.46
40838;BME280;29632;49.168;9.848;2022-12-18T03:42:20;97889.28;;;-1.82;44.57
40838;BME280;29632;49.168;9.848;2022-12-18T03:45:12;97907.16;;;-1.82;44.68
40838;BME280;29632;49.168;9.848;2022-12-18T03:48:28;97914.81;;;-1.82;44.29
40838;BME280;29632;49.168;9.848;2022-12-18T03:51:02;97909.72;;;-1.82;44.41
40838;BME280;29632;49.168;9.848;2022-12-18T03:56:02;97904.59;;;-1.82;44.54
40838;BME280;29632;49.168;9.848;2022-12-18T03:58:29;97912.22;;;-1.81;44.23
40838;BME280;29632;49.168;9.848;2022-12-18T04:00:59;97919.03;;;-1.80;44.26
40838;BME280;29632;49.168;9.848;2022-12-18T04:03:25;97916.44;;;-1.78;44.22
40838;BME280;29632;49.168;9.848;2022-12-18T04:05:52;97913.00;;;-1.79;44.53
40838;BME280;29632;49.168;9.848;2022-12-18T04:08:20;97918.06;;;-1.76;44.32
40838;BME280;29632;49.168;9.848;2022-12-18T04:10:46;97907.81;;;-1.74;44.12
40838;BME280;29632;49.168;9.848;2022-12-18T04:13:12;97907.84;;;-1.76;44.42
40838;BME280;29632;49.168;9.848;2022-12-18T04:15:38;97915.56;;;-1.79;44.12
40838;BME280;29632;49.168;9.848;2022-12-18T04:18:04;97901.22;;;-1.83;44.36
40838;BME280;29632;49.168;9.848;2022-12-18T04:20:29;97906.31;;;-1.83;44.29
40838;BME280;29632;49.168;9.848;2022-12-18T04:22:55;97907.22;;;-1.85;44.36
40838;BME280;29632;49.168;9.848;2022-12-18T04:25:21;97908.97;;;-1.87;44.14
40838;BME280;29632;49.168;9.848;2022-12-18T04:27:46;97920.94;;;-1.88;44.55
40838;BME280;29632;49.168;9.848;2022-12-18T04:30:12;97912.47;;;-1.90;44.14
40838;BME280;29632;49.168;9.848;2022-12-18T04:32:38;97919.28;;;-1.91;44.24
40838;BME280;29632;49.168;9.848;2022-12-18T04:35:04;97924.44;;;-1.92;44.36
40838;BME280;29632;49.168;9.848;2022-12-18T04:37:31;97927.81;;;-1.92;44.19
40838;BME280;29632;49.168;9.848;2022-12-18T04:39:57;97934.66;;;-1.92;44.42
40838;BME280;29632;49.168;9.848;2022-12-18T04:42:23;97926.16;;;-1.94;44.48
40838;BME280;29632;49.168;9.848;2022-12-18T04:44:49;97933.94;;;-1.97;44.30
40838;BME280;29632;49.168;9.848;2022-12-18T04:47:14;97929.72;;;-2.00;44.00
40838;BME280;29632;49.168;9.848;2022-12-18T04:49:40;97937.47;;;-2.03;44.32
40838;BME280;29632;49.168;9.848;2022-12-18T04:52:06;97944.38;;;-2.08;44.18
40838;BME280;29632;49.168;9.848;2022-12-18T04:54:32;97941.97;;;-2.13;44.45
40838;BME280;29632;49.168;9.848;2022-12-18T04:56:57;97942.97;;;-2.18;44.27
40838;BME280;29632;49.168;9.848;2022-12-18T04:59:23;97929.44;;;-2.22;44.34
40838;BME280;29632;49.168;9.848;2022-12-18T05:01:49;97920.22;;;-2.29;44.25
40838;BME280;29632;49.168;9.848;2022-12-18T05:04:14;97927.16;;;-2.34;44.21
40838;BME280;29632;49.168;9.848;2022-12-18T05:06:40;97927.31;;;-2.40;44.24
40838;BME280;29632;49.168;9.848;2022-12-18T05:09:06;97927.44;;;-2.47;44.36
40838;BME280;29632;49.168;9.848;2022-12-18T05:11:31;97926.66;;;-2.50;44.58
40838;BME280;29632;49.168;9.848;2022-12-18T05:13:57;97931.91;;;-2.55;44.54
40838;BME280;29632;49.168;9.848;2022-12-18T05:16:22;97927.72;;;-2.59;44.56
40838;BME280;29632;49.168;9.848;2022-12-18T05:18:48;97943.97;;;-2.63;44.51
40838;BME280;29632;49.168;9.848;2022-12-18T05:21:14;97933.06;;;-2.70;44.63
40838;BME280;29632;49.168;9.848;2022-12-18T05:23:39;97937.44;;;-2.75;44.57
40838;BME280;29632;49.168;9.848;2022-12-18T05:26:06;97930.72;;;-2.79;44.27
40838;BME280;29632;49.168;9.848;2022-12-18T05:28:34;97932.56;;;-2.86;44.56
40838;BME280;29632;49.168;9.848;2022-12-18T05:31:03;97937.69;;;-2.87;44.42
40838;BME280;29632;49.168;9.848;2022-12-18T05:33:31;97937.75;;;-2.90;44.64
40838;BME280;29632;49.168;9.848;2022-12-18T05:35:59;97944.56;;;-2.91;44.50
40838;BME280;29632;49.168;9.848;2022-12-18T05:38:25;97959.84;;;-2.89;44.43
40838;BME280;29632;49.168;9.848;2022-12-18T05:40:52;97953.03;;;-2.89;44.39
40838;BME280;29632;49.168;9.848;2022-12-18T05:43:19;97940.28;;;-2.89;44.71
40838;BME280;29632;49.168;9.848;2022-12-18T05:45:45;97942.78;;;-2.87;44.69
40838;BME280;29632;49.168;9.848;2022-12-18T05:48:11;97935.13;;;-2.87;44.44
40838;BME280;29632;49.168;9.848;2022-12-18T05:50:37;97930.94;;;-2.88;44.28
40838;BME280;29632;49.168;9.848;2022-12-18T05:53:04;97939.44;;;-2.89;44.48
40838;BME280;29632;49.168;9.848;2022-12-18T05:55:37;97940.28;;;-2.90;44.77
40838;BME280;29632;49.168;9.848;2022-12-18T05:58:04;97940.28;;;-2.90;44.48
40838;BME280;29632;49.168;9.848;2022-12-18T06:00:31;97936.09;;;-2.91;44.81
40838;BME280;29632;49.168;9.848;2022-12-18T06:02:58;97944.56;;;-2.91;44.53
40838;BME280;29632;49.168;9.848;2022-12-18T06:05:24;97940.28;;;-2.90;44.45
40838;BME280;29632;49.168;9.848;2022-12-18T06:07:50;97942.03;;;-2.92;44.54
40838;BME280;29632;49.168;9.848;2022-12-18T06:10:16;97943.81;;;-2.96;44.66
40838;BME280;29632;49.168;9.848;2022-12-18T06:12:41;97950.63;;;-2.96;44.89
40838;BME280;29632;49.168;9.848;2022-12-18T06:15:07;97948.97;;;-2.99;44.65
40838;BME280;29632;49.168;9.848;2022-12-18T06:17:33;97946.44;;;-2.99;44.50
40838;BME280;29632;49.168;9.848;2022-12-18T06:19:59;97938.78;;;-2.99;44.50
40838;BME280;29632;49.168;9.848;2022-12-18T06:22:26;97941.31;;;-2.97;44.71
40838;BME280;29632;49.168;9.848;2022-12-18T06:24:52;97941.34;;;-2.99;44.56
40838;BME280;29632;49.168;9.848;2022-12-18T06:27:19;97949.88;;;-3.00;44.67
40838;BME280;29632;49.168;9.848;2022-12-18T06:29:44;97945.63;;;-3.01;44.49
40838;BME280;29632;49.168;9.848;2022-12-18T06:32:11;97943.09;;;-3.03;44.70
40838;BME280;29632;49.168;9.848;2022-12-18T06:34:37;97943.13;;;-3.04;44.52
40838;BME280;29632;49.168;9.848;2022-12-18T06:37:03;97945.69;;;-3.04;44.82
40838;BME280;29632;49.168;9.848;2022-12-18T06:39:28;97946.53;;;-3.04;44.82
40838;BME280;29632;49.168;9.848;2022-12-18T06:41:54;97946.50;;;-3.02;44.57
40838;BME280;29632;49.168;9.848;2022-12-18T06:44:20;97952.44;;;-3.01;44.78
40838;BME280;29632;49.168;9.848;2022-12-18T06:46:46;97946.50;;;-3.02;44.75
40838;BME280;29632;49.168;9.848;2022-12-18T06:49:11;97943.03;;;-2.99;44.88
40838;BME280;29632;49.168;9.848;2022-12-18T06:51:38;97949.03;;;-3.00;44.64
40838;BME280;29632;49.168;9.848;2022-12-18T06:54:03;97951.63;;;-3.02;44.61
40838;BME280;29632;49.168;9.848;2022-12-18T06:56:29;97951.66;;;-3.04;44.80
40838;BME280;29632;49.168;9.848;2022-12-18T06:58:54;97950.75;;;-3.03;44.81
40838;BME280;29632;49.168;9.848;2022-12-18T07:01:20;97963.47;;;-3.01;44.76
40838;BME280;29632;49.168;9.848;2022-12-18T07:03:47;97968.53;;;-2.99;44.76
40838;BME280;29632;49.168;9.848;2022-12-18T07:06:18;97961.72;;;-2.99;44.82
40838;BME280;29632;49.168;9.848;2022-12-18T07:08:45;97969.34;;;-2.97;44.94
40838;BME280;29632;49.168;9.848;2022-12-18T07:11:11;97969.31;;;-2.96;44.70
40838;BME280;29632;49.168;9.848;2022-12-18T07:13:36;97980.28;;;-2.92;44.79
40838;BME280;29632;49.168;9.848;2022-12-18T07:16:10;97976.81;;;-2.88;44.80
40838;BME280;29632;49.168;9.848;2022-12-18T07:18:36;97986.09;;;-2.86;44.72
40838;BME280;29632;49.168;9.848;2022-12-18T07:21:11;97977.59;;;-2.85;44.87
40838;BME280;29632;49.168;9.848;2022-12-18T07:23:37;97978.41;;;-2.82;45.01
40838;BME280;29632;49.168;9.848;2022-12-18T07:26:08;97988.56;;;-2.81;44.65
40838;BME280;29632;49.168;9.848;2022-12-18T07:28:36;97991.91;;;-2.77;45.00
40838;BME280;29632;49.168;9.848;2022-12-18T07:31:05;97990.94;;;-2.73;45.14
40838;BME280;29632;49.168;9.848;2022-12-18T07:33:32;97984.91;;;-2.69;44.74
40838;BME280;29632;49.168;9.848;2022-12-18T07:36:02;97982.28;;;-2.66;45.11
40838;BME280;29632;49.168;9.848;2022-12-18T07:38:29;97994.97;;;-2.61;45.13
40838;BME280;29632;49.168;9.848;2022-12-18T07:40:59;97998.28;;;-2.58;44.74
40838;BME280;29632;49.168;9.848;2022-12-18T07:43:25;97995.66;;;-2.55;45.01
40838;BME280;29632;49.168;9.848;2022-12-18T07:45:51;97993.00;;;-2.50;44.83
40838;BME280;29632;49.168;9.848;2022-12-18T07:48:16;97984.47;;;-2.48;44.91
40838;BME280;29632;49.168;9.848;2022-12-18T07:50:42;97983.53;;;-2.45;45.31
40838;BME280;29632;49.168;9.848;2022-12-18T07:53:07;97994.59;;;-2.44;45.00
40838;BME280;29632;49.168;9.848;2022-12-18T07:55:33;97982.69;;;-2.44;44.85
40838;BME280;29632;49.168;9.848;2022-12-18T07:58:03;97986.03;;;-2.42;45.09
40838;BME280;29632;49.168;9.848;2022-12-18T08:00:29;97989.38;;;-2.40;45.01
40838;BME280;29632;49.168;9.848;2022-12-18T08:02:55;97987.63;;;-2.38;45.07
40838;BME280;29632;49.168;9.848;2022-12-18T08:05:20;97981.63;;;-2.35;45.26
40838;BME280;29632;49.168;9.848;2022-12-18T08:07:46;97982.44;;;-2.33;44.91
40838;BME280;29632;49.168;9.848;2022-12-18T08:10:12;97992.56;;;-2.30;45.19
40838;BME280;29632;49.168;9.848;2022-12-18T08:12:38;97993.34;;;-2.26;45.17
40838;BME280;29632;49.168;9.848;2022-12-18T08:15:04;97994.94;;;-2.22;45.10
40838;BME280;29632;49.168;9.848;2022-12-18T08:17:29;97997.38;;;-2.16;45.29
40838;BME280;29632;49.168;9.848;2022-12-18T08:19:55;98010.06;;;-2.13;45.02
40838;BME280;29632;49.168;9.848;2022-12-18T08:22:21;98000.63;;;-2.10;44.93
40838;BME280;29632;49.168;9.848;2022-12-18T08:24:46;97997.13;;;-2.07;45.21
40838;BME280;29632;49.168;9.848;2022-12-18T08:27:12;98003.84;;;-2.03;45.24
40838;BME280;29632;49.168;9.848;2022-12-18T08:29:38;97990.16;;;-1.99;45.10
40838;BME280;29632;49.168;9.848;2022-12-18T08:32:04;98001.09;;;-1.94;44.93
40838;BME280;29632;49.168;9.848;2022-12-18T08:34:29;98002.69;;;-1.90;44.97
40838;BME280;29632;49.168;9.848;2022-12-18T08:36:55;98000.06;;;-1.86;45.00
40838;BME280;29632;49.168;9.848;2022-12-18T08:39:20;97996.56;;;-1.84;45.11
40838;BME280;29632;49.168;9.848;2022-12-18T08:41:46;98004.19;;;-1.81;45.36
40838;BME280;29632;49.168;9.848;2022-12-18T08:44:32;98007.47;;;-1.76;45.45
40838;BME280;29632;49.168;9.848;2022-12-18T08:47:07;98012.41;;;-1.69;45.28
40838;BME280;29632;49.168;9.848;2022-12-18T08:49:33;98002.09;;;-1.66;44.91
40838;BME280;29632;49.168;9.848;2022-12-18T08:52:00;97994.38;;;-1.63;45.20
40838;BME280;29632;49.168;9.848;2022-12-18T08:54:26;97990.88;;;-1.61;45.24
40838;BME280;29632;49.168;9.848;2022-12-18T08:56:52;97991.72;;;-1.59;45.33
40838;BME280;29632;49.168;9.848;2022-12-18T08:59:18;97987.34;;;-1.55;45.20
40838;BME280;29632;49.168;9.848;2022-12-18T09:01:44;97986.47;;;-1.54;45.10
40838;BME280;29632;49.168;9.848;2022-12-18T09:04:10;97991.53;;;-1.53;45.10
40838;BME280;29632;49.168;9.848;2022-12-18T09:06:36;97999.16;;;-1.51;44.82
40838;BME280;29632;49.168;9.848;2022-12-18T09:09:03;98002.47;;;-1.47;45.06
40838;BME280;29632;49.168;9.848;2022-12-18T09:11:29;98006.75;;;-1.48;45.32
40838;BME280;29632;49.168;9.848;2022-12-18T09:13:56;97999.88;;;-1.46;44.94
40838;BME280;29632;49.168;9.848;2022-12-18T09:16:23;98002.41;;;-1.44;45.19
40838;BME280;29632;49.168;9.848;2022-12-18T09:18:49;97994.63;;;-1.40;45.38
40838;BME280;29632;49.168;9.848;2022-12-18T09:21:17;97994.53;;;-1.37;45.04
40838;BME280;29632;49.168;9.848;2022-12-18T09:23:43;97991.88;;;-1.32;45.46
40838;BME280;29632;49.168;9.848;2022-12-18T09:26:09;97991.75;;;-1.27;45.31
40838;BME280;29632;49.168;9.848;2022-12-18T09:28:34;97989.19;;;-1.27;45.69
40838;BME280;29632;49.168;9.848;2022-12-18T09:31:05;97985.75;;;-1.26;44.95
40838;BME280;29632;49.168;9.848;2022-12-18T09:33:31;97972.88;;;-1.23;45.22
40838;BME280;29632;49.168;9.848;2022-12-18T09:35:57;97977.97;;;-1.22;45.47
40838;BME280;29632;49.168;9.848;2022-12-18T09:38:22;97971.88;;;-1.18;45.33
40838;BME280;29632;49.168;9.848;2022-12-18T09:40:51;97976.03;;;-1.13;45.45
40838;BME280;29632;49.168;9.848;2022-12-18T09:43:37;97972.47;;;-1.08;45.50
40838;BME280;29632;49.168;9.848;2022-12-18T09:46:08;97974.84;;;-1.02;45.26
40838;BME280;29632;49.168;9.848;2022-12-18T09:48:39;97984.91;;;-0.96;45.47
40838;BME280;29632;49.168;9.848;2022-12-18T09:51:13;97982.19;;;-0.91;45.49
40838;BME280;29632;49.168;9.848;2022-12-18T09:53:40;97970.06;;;-0.84;45.49
40838;BME280;29632;49.168;9.848;2022-12-18T09:56:06;97974.19;;;-0.79;45.18
40838;BME280;29632;49.168;9.848;2022-12-18T09:58:44;97979.22;;;-0.76;45.38
40838;BME280;29632;49.168;9.848;2022-12-18T10:01:21;97977.41;;;-0.72;45.48
40838;BME280;29632;49.168;9.848;2022-12-18T10:03:47;97991.78;;;-0.68;45.24
40838;BME280;29632;49.168;9.848;2022-12-18T10:06:29;97977.22;;;-0.66;45.36
40838;BME280;29632;49.168;9.848;2022-12-18T10:09:07;97973.78;;;-0.65;45.59
40838;BME280;29632;49.168;9.848;2022-12-18T10:12:00;97961.75;;;-0.61;45.41
40838;BME280;29632;49.168;9.848;2022-12-18T10:14:51;97974.31;;;-0.53;45.41
40838;BME280;29632;49.168;9.848;2022-12-18T10:20:22;97963.88;;;-0.47;45.53
40838;BME280;29632;49.168;9.848;2022-12-18T10:23:02;97969.84;;;-0.47;45.40
40838;BME280;29632;49.168;9.848;2022-12-18T10:25:46;97968.03;;;-0.43;45.38
40838;BME280;29632;49.168;9.848;2022-12-18T10:28:14;97955.97;;;-0.40;45.43
40838;BME280;29632;49.168;9.848;2022-12-18T10:30:41;97955.03;;;-0.37;45.42
40838;BME280;29632;49.168;9.848;2022-12-18T10:33:16;97963.56;;;-0.36;45.42
40838;BME280;29632;49.168;9.848;2022-12-18T10:35:42;97961.78;;;-0.34;45.75
40838;BME280;29632;49.168;9.848;2022-12-18T10:41:05;97957.28;;;-0.26;45.76
40838;BME280;29632;49.168;9.848;2022-12-18T10:43:33;97966.56;;;-0.24;45.68
40838;BME280;29632;49.168;9.848;2022-12-18T10:46:02;97967.22;;;-0.17;45.26
40838;BME280;29632;49.168;9.848;2022-12-18T10:48:31;97964.50;;;-0.12;45.56
40838;BME280;29632;49.168;9.848;2022-12-18T10:50:57;97970.31;;;-0.07;45.58
40838;BME280;29632;49.168;9.848;2022-12-18T10:53:25;97965.91;;;-0.04;45.58
40838;BME280;29632;49.168;9.848;2022-12-18T10:55:53;97967.50;;;0.01;45.64
40838;BME280;29632;49.168;9.848;2022-12-18T10:58:28;97981.88;;;0.05;45.65
40838;BME280;29632;49.168;9.848;2022-12-18T11:01:11;97976.69;;;0.08;45.46
40838;BME280;29632;49.168;9.848;2022-12-18T11:03:42;97971.50;;;0.09;45.53
40838;BME280;29632;49.168;9.848;2022-12-18T11:06:19;97984.31;;;0.09;45.68
40838;BME280;29632;49.168;9.848;2022-12-18T11:09:00;97958.75;;;0.08;45.52
40838;BME280;29632;49.168;9.848;2022-12-18T11:11:26;97954.44;;;0.08;45.40
40838;BME280;29632;49.168;9.848;2022-12-18T11:14:46;97956.09;;;0.11;45.75
40838;BME280;29632;49.168;9.848;2022-12-18T11:16:53;97952.56;;;0.13;45.53
40838;BME280;29632;49.168;9.848;2022-12-18T11:19:34;97965.19;;;0.20;45.81
40838;BME280;29632;49.168;9.848;2022-12-18T11:22:02;97959.03;;;0.25;45.72
40838;BME280;29632;49.168;9.848;2022-12-18T11:24:33;97960.53;;;0.31;45.69
40838;BME280;29632;49.168;9.848;2022-12-18T11:27:04;97953.56;;;0.34;45.60
40838;BME280;29632;49.168;9.848;2022-12-18T11:29:37;97950.91;;;0.37;45.54
40838;BME280;29632;49.168;9.848;2022-12-18T11:34:46;97933.50;;;0.47;45.90
40838;BME280;29632;49.168;9.848;2022-12-18T11:37:13;97934.91;;;0.56;45.83
40838;BME280;29632;49.168;9.848;2022-12-18T11:39:45;97949.97;;;0.65;45.42
40838;BME280;29632;49.168;9.848;2022-12-18T11:47:47;97928.53;;;0.91;45.32
40838;BME280;29632;49.168;9.848;2022-12-18T11:50:20;97928.16;;;1.01;45.27
40838;BME280;29632;49.168;9.848;2022-12-18T11:52:48;97923.59;;;1.09;45.50
40838;BME280;29632;49.168;9.848;2022-12-18T11:55:39;97926.66;;;1.19;45.07
40838;BME280;29632;49.168;9.848;2022-12-18T12:01:13;97924.28;;;1.36;45.07
40838;BME280;29632;49.168;9.848;2022-12-18T12:15:01;97897.78;;;1.78;45.15
40838;BME280;29632;49.168;9.848;2022-12-18T12:17:42;97889.84;;;1.84;44.94
40838;BME280;29632;49.168;9.848;2022-12-18T12:20:25;97894.00;;;1.87;45.40
40838;BME280;29632;49.168;9.848;2022-12-18T12:22:58;97892.19;;;1.91;45.55
40838;BME280;29632;49.168;9.848;2022-12-18T12:25:37;97891.03;;;1.98;45.36
40838;BME280;29632;49.168;9.848;2022-12-18T12:28:15;97888.13;;;2.05;44.87
40838;BME280;29632;49.168;9.848;2022-12-18T12:30:55;97892.22;;;2.10;45.46
40838;BME280;29632;49.168;9.848;2022-12-18T12:36:56;97888.91;;;2.28;44.90
40838;BME280;29632;49.168;9.848;2022-12-18T12:39:30;97895.56;;;2.32;45.13
40838;BME280;29632;49.168;9.848;2022-12-18T12:41:57;97898.72;;;2.39;45.46
40838;BME280;29632;49.168;9.848;2022-12-18T12:44:44;97895.91;;;2.45;45.55
40838;BME280;29632;49.168;9.848;2022-12-18T12:47:17;97895.56;;;2.53;44.83
40838;BME280;29632;49.168;9.848;2022-12-18T12:49:46;97903.97;;;2.56;45.33
40838;BME280;29632;49.168;9.848;2022-12-18T12:52:38;97897.66;;;2.63;45.13
40838;BME280;29632;49.168;9.848;2022-12-18T12:55:07;97884.59;;;2.68;45.20
40838;BME280;29632;49.168;9.848;2022-12-18T12:57:41;97888.91;;;2.68;45.11
40838;BME280;29632;49.168;9.848;2022-12-18T13:00:11;97886.41;;;2.66;45.82
40838;BME280;29632;49.168;9.848;2022-12-18T13:03:15;97894.06;;;2.68;45.99
40838;BME280;29632;49.168;9.848;2022-12-18T13:05:54;97888.06;;;2.67;45.08
40838;BME280;29632;49.168;9.848;2022-12-18T13:08:25;97879.47;;;2.68;45.87
40838;BME280;29632;49.168;9.848;2022-12-18T13:10:54;97870.75;;;2.71;45.91
40838;BME280;29632;49.168;9.848;2022-12-18T13:13:59;97880.28;;;2.69;45.30
40838;BME280;29632;49.168;9.848;2022-12-18T13:16:25;97871.75;;;2.68;45.31
40838;BME280;29632;49.168;9.848;2022-12-18T13:18:54;97869.09;;;2.70;45.76
40838;BME280;29632;49.168;9.848;2022-12-18T13:21:30;97884.53;;;2.70;45.38
40838;BME280;29632;49.168;9.848;2022-12-18T13:23:56;97883.72;;;2.69;45.08
40838;BME280;29632;49.168;9.848;2022-12-18T13:28:52;97900.66;;;2.73;45.62
40838;BME280;29632;49.168;9.848;2022-12-18T13:34:23;97891.06;;;2.77;45.26
40838;BME280;29632;49.168;9.848;2022-12-18T13:36:49;97886.69;;;2.79;45.96
40838;BME280;29632;49.168;9.848;2022-12-18T13:41:47;97890.19;;;2.78;45.59
40838;BME280;29632;49.168;9.848;2022-12-18T13:44:33;97880.91;;;2.74;45.77
40838;BME280;29632;49.168;9.848;2022-12-18T13:47:04;97882.84;;;2.69;45.36
40838;BME280;29632;49.168;9.848;2022-12-18T13:49:43;97881.41;;;2.63;46.05
40838;BME280;29632;49.168;9.848;2022-12-18T13:52:19;97883.97;;;2.63;45.33
40838;BME280;29632;49.168;9.848;2022-12-18T13:54:51;97876.38;;;2.60;45.39
40838;BME280;29632;49.168;9.848;2022-12-18T13:57:29;97874.78;;;2.57;45.71
40838;BME280;29632;49.168;9.848;2022-12-18T13:59:55;97873.94;;;2.57;45.88
40838;BME280;29632;49.168;9.848;2022-12-18T14:02:24;97872.22;;;2.57;45.60
40838;BME280;29632;49.168;9.848;2022-12-18T14:04:51;97872.16;;;2.59;45.51
40838;BME280;29632;49.168;9.848;2022-12-18T14:07:27;97865.19;;;2.61;45.90